Aplicació Alertes

Dades de l'estació automàtica Oliola

?
?
Resum diari 22:00 TU
Dades diàries de l'estació meteorològica
Temperatura mitjana 0.0 °C
Temperatura màxima 6.6 °C 14:44 TU
Temperatura mínima -5.2 °C 6:22 TU
Humitat relativa mitjana 83%
Precipitació acumulada 0.0 mm
Ratxa màxima del vent (2 m) 22.0 km/h - 274º 14:23 TU
Irradiació solar global 8.2 MJ/m2

El tram horari està expressat en Temps Universal (TU). Cal sumar una hora en horari d'hivern i dues en horari d'estiu per passar a l'hora oficial.

Oliola

Metadades estació meteorol´gica
Municipi Oliola
Comarca Noguera
Altitud 443 m
Data alta 26.03.2001
Estat actual Operativa
Dades de període
Període
TU
TM
°C
TX
°C
TN
°C
HRM
%
PPT
mm
VVM (2 m)
km/h
DVM (2 m)
graus
VVX (2 m)
km/h
RS
W/m2
00:00 - 00:30 -1.4 -0.9 -1.7 89 0.0 1.1 287 6.5 0
00:30 - 01:00 -1.5 -0.9 -1.8 90 0.0 0.7 320 3.6 0
01:00 - 01:30 -1.3 -0.5 -2.4 93 0.0 2.9 348 9.4 0
01:30 - 02:00 -2.1 -2.0 -2.3 95 0.0 2.9 63 5.8 0
02:00 - 02:30 -2.2 -2.1 -2.4 94 0.0 2.2 17 6.5 0
02:30 - 03:00 -2.1 -1.9 -2.4 95 0.0 1.1 6 4.0 0
03:00 - 03:30 -1.9 -0.7 -2.6 97 0.0 2.5 310 7.9 0
03:30 - 04:00 -2.3 -0.9 -3.4 96 0.0 2.5 116 6.8 0
04:00 - 04:30 -3.4 -3.1 -3.6 97 0.0 1.8 360 4.7 0
04:30 - 05:00 -3.7 -3.1 -4.1 97 0.0 3.2 314 6.8 0
05:00 - 05:30 -4.3 -3.5 -4.7 97 0.0 2.5 66 6.1 0
05:30 - 06:00 -4.5 -4.1 -4.6 97 0.0 1.4 26 6.1 0
06:00 - 06:30 -4.5 -3.6 -5.2 97 0.0 2.2 11 6.1 0
06:30 - 07:00 -4.8 -4.3 -5.0 97 0.0 1.8 11 5.4 0
07:00 - 07:30 -4.5 -4.0 -4.8 97 0.0 4.3 6 10.4 5
07:30 - 08:00 -3.8 -3.3 -4.3 97 0.0 1.1 241 7.6 37
08:00 - 08:30 -2.8 -2.3 -3.6 95 0.0 1.4 54 7.2 110
08:30 - 09:00 -2.6 -2.1 -3.0 97 0.0 2.9 39 7.6 154
09:00 - 09:30 -2.3 -1.7 -2.7 98 0.0 2.5 124 6.5 200
09:30 - 10:00 -0.5 0.3 -1.6 96 0.0 1.8 116 4.7 258
10:00 - 10:30 1.2 2.1 -0.3 87 0.0 2.5 132 6.8 317
10:30 - 11:00 1.4 1.8 1.1 82 0.0 2.5 159 6.5 143
11:00 - 11:30 2.5 3.8 1.4 79 0.0 2.9 72 9.4 459
11:30 - 12:00 4.2 4.7 3.7 70 0.0 8.6 254 16.2 490
12:00 - 12:30 4.6 5.0 4.3 71 0.0 11.5 243 19.4 438
12:30 - 13:00 4.8 5.1 4.3 71 0.0 10.8 245 19.1 426
13:00 - 13:30 5.3 5.8 4.8 69 0.0 10.8 252 19.8 430
13:30 - 14:00 5.6 5.8 5.4 67 0.0 14.0 262 21.6 350
14:00 - 14:30 6.0 6.3 5.8 63 0.0 13.7 269 22.0 293
14:30 - 15:00 6.4 6.6 6.3 61 0.0 13.7 259 19.4 225
15:00 - 15:30 6.5 6.5 6.4 56 0.0 12.6 262 19.8 154
15:30 - 16:00 6.2 6.4 5.6 50 0.0 9.4 282 16.6 82
16:00 - 16:30 5.1 5.5 4.6 51 0.0 9.4 286 15.5 10
16:30 - 17:00 3.9 4.5 2.5 56 0.0 5.4 283 11.2 1
17:00 - 17:30 1.8 2.4 1.2 65 0.0 1.1 35 5.0 0
17:30 - 18:00 0.4 1.0 -0.5 73 0.0 1.4 43 5.0 0
18:00 - 18:30 -0.6 0.1 -1.0 78 0.0 0.4 344 2.9 0
18:30 - 19:00 -1.3 -0.8 -1.7 82 0.0 0.7 322 4.0 0
19:00 - 19:30 -1.5 -1.2 -1.7 83 0.0 1.4 334 4.7 0
19:30 - 20:00 -1.4 -0.7 -1.8 84 0.0 1.1 296 5.0 0
20:00 - 20:30 -0.7 0.0 -1.7 84 0.0 2.5 292 6.8 0
20:30 - 21:00 -1.4 -0.5 -2.0 86 0.0 1.8 354 6.1 0
21:00 - 21:30 -1.2 -0.9 -1.4 87 0.0 2.9 19 6.5 0
21:30 - 22:00 -0.8 -0.3 -1.1 86 0.0 2.2 22 9.4 0
22:00 - 22:30 -1.0 -0.8 -1.2 87 0.0 1.4 29 4.3 0
22:30 - 23:00 (s/d) (s/d) (s/d) (s/d) (s/d) (s/d) (s/d) (s/d) (s/d)

Les dades en taronja només han passat un control de qualitat automàtic. Resta pendent la seva validació definitiva.